AAL2341 KMIA-KDCA
Flight info
| Callsign | AAL2341 |
|---|---|
| Flight time | N/A |
| Altitude | 38000 |
| Route | FOLZZ3 ALYRA GRUBR/N0452F390 Y299 SEELO GARIC RANAY TANJA WAVES CAPSS4 |
| Aircraft | A20N/M-SDE2E3FGHIRWXY/LB1 |
Departure
| Time | N/A |
|---|---|
| Airport | Miami International Airport (KMIA) |
Arrival
| Time | 2026-04-22 04:54 |
|---|---|
| Airport | Ronald Reagan Washington National Airport (KDCA) |
| Time | Latitude | Longitude | Altitude | Speed | Heading |
|---|---|---|---|---|---|
| 2026-04-22 03:12 | 28.26920 | -78.50490 | 39314 ft | 442 kts | 358° |
| 2026-04-22 03:12 | 28.29977 | -78.50087 | 39309 ft | 442 kts | 358° |
| 2026-04-22 03:13 | 28.36088 | -78.49281 | 39302 ft | 442 kts | 358° |
| 2026-04-22 03:13 | 28.42199 | -78.48475 | 39307 ft | 442 kts | 358° |
| 2026-04-22 03:14 | 28.48310 | -78.47667 | 39320 ft | 442 kts | 358° |
| 2026-04-22 03:14 | 28.54376 | -78.46865 | 39306 ft | 442 kts | 358° |
| 2026-04-22 03:15 | 28.60488 | -78.46056 | 39313 ft | 442 kts | 358° |
| 2026-04-22 03:15 | 28.66595 | -78.45246 | 39315 ft | 442 kts | 358° |
| 2026-04-22 03:16 | 28.72704 | -78.44435 | 39308 ft | 442 kts | 358° |
| 2026-04-22 03:16 | 28.78773 | -78.43629 | 39319 ft | 442 kts | 358° |
| 2026-04-22 03:17 | 28.84878 | -78.42817 | 39314 ft | 442 kts | 358° |
| 2026-04-22 03:17 | 28.90986 | -78.42003 | 39317 ft | 442 kts | 358° |
| 2026-04-22 03:18 | 28.97094 | -78.41188 | 39317 ft | 442 kts | 358° |
| 2026-04-22 03:18 | 29.03206 | -78.40372 | 39319 ft | 442 kts | 358° |
| 2026-04-22 03:19 | 29.09272 | -78.39561 | 39317 ft | 442 kts | 358° |
| 2026-04-22 03:19 | 29.15389 | -78.38743 | 39312 ft | 442 kts | 358° |
| 2026-04-22 03:20 | 29.21504 | -78.37923 | 39320 ft | 442 kts | 358° |
| 2026-04-22 03:20 | 29.27614 | -78.37104 | 39320 ft | 442 kts | 358° |
| 2026-04-22 03:21 | 29.33684 | -78.36288 | 39330 ft | 442 kts | 359° |
| 2026-04-22 03:21 | 29.39791 | -78.35467 | 39319 ft | 442 kts | 359° |
| 2026-04-22 03:22 | 29.45895 | -78.34695 | 39324 ft | 438 kts | 355° |
| 2026-04-22 03:22 | 29.51807 | -78.35309 | 39326 ft | 421 kts | 340° |
| 2026-04-22 03:23 | 29.57410 | -78.36990 | 39325 ft | 418 kts | 337° |
| 2026-04-22 03:23 | 29.62995 | -78.38862 | 39329 ft | 418 kts | 336° |
| 2026-04-22 03:24 | 29.68582 | -78.40731 | 39322 ft | 418 kts | 337° |
| 2026-04-22 03:24 | 29.74181 | -78.42572 | 39322 ft | 418 kts | 337° |
| 2026-04-22 03:25 | 29.79748 | -78.44388 | 39324 ft | 419 kts | 337° |
| 2026-04-22 03:25 | 29.85352 | -78.46215 | 39325 ft | 419 kts | 337° |
| 2026-04-22 03:26 | 29.90956 | -78.48046 | 39329 ft | 419 kts | 337° |
| 2026-04-22 03:26 | 29.96557 | -78.49879 | 39324 ft | 419 kts | 337° |
| 2026-04-22 03:27 | 30.02121 | -78.51702 | 39319 ft | 419 kts | 337° |
| 2026-04-22 03:27 | 30.07727 | -78.53541 | 39318 ft | 418 kts | 337° |
| 2026-04-22 03:28 | 30.13385 | -78.55188 | 39319 ft | 425 kts | 345° |
| 2026-04-22 03:28 | 30.19387 | -78.55272 | 39322 ft | 438 kts | 357° |
| 2026-04-22 03:29 | 30.25430 | -78.54522 | 39320 ft | 441 kts | 359° |
| 2026-04-22 03:29 | 30.31521 | -78.53601 | 39321 ft | 442 kts | 360° |
| 2026-04-22 03:30 | 30.37617 | -78.52683 | 39320 ft | 441 kts | 359° |
| 2026-04-22 03:30 | 30.43710 | -78.51778 | 39318 ft | 442 kts | 360° |
| 2026-04-22 03:31 | 30.49758 | -78.50809 | 39322 ft | 441 kts | 0° |
| 2026-04-22 03:31 | 30.55831 | -78.49813 | 39319 ft | 441 kts | 0° |
| 2026-04-22 03:32 | 30.61898 | -78.48823 | 39319 ft | 440 kts | 0° |
| 2026-04-22 03:32 | 30.67969 | -78.47836 | 39320 ft | 440 kts | 0° |
| 2026-04-22 03:33 | 30.74041 | -78.46849 | 39343 ft | 440 kts | 0° |
| 2026-04-22 03:33 | 30.80040 | -78.45871 | 39322 ft | 437 kts | 0° |
| 2026-04-22 03:34 | 30.86053 | -78.44891 | 39319 ft | 436 kts | 0° |
| 2026-04-22 03:34 | 30.92068 | -78.43912 | 39319 ft | 436 kts | 0° |
| 2026-04-22 03:35 | 30.98037 | -78.42938 | 39317 ft | 436 kts | 0° |
| 2026-04-22 03:35 | 31.04044 | -78.41955 | 39321 ft | 435 kts | 0° |
| 2026-04-22 03:36 | 31.10025 | -78.40974 | 39319 ft | 434 kts | 0° |
| 2026-04-22 03:36 | 31.16003 | -78.39995 | 39320 ft | 434 kts | 0° |
| 2026-04-22 03:37 | 31.21978 | -78.39014 | 39322 ft | 434 kts | 0° |
| 2026-04-22 03:37 | 31.27918 | -78.38038 | 39338 ft | 434 kts | 0° |
| 2026-04-22 03:38 | 31.33887 | -78.37055 | 39322 ft | 432 kts | 0° |
| 2026-04-22 03:38 | 31.39838 | -78.36074 | 39322 ft | 432 kts | 0° |
| 2026-04-22 03:39 | 31.45791 | -78.35092 | 39322 ft | 432 kts | 0° |
| 2026-04-22 03:39 | 31.51701 | -78.34116 | 39322 ft | 432 kts | 0° |
| 2026-04-22 03:40 | 31.57652 | -78.33131 | 39325 ft | 431 kts | 0° |
| 2026-04-22 03:40 | 31.63583 | -78.32148 | 39321 ft | 430 kts | 0° |
| 2026-04-22 03:41 | 31.69512 | -78.31165 | 39324 ft | 430 kts | 0° |
| 2026-04-22 03:41 | 31.75401 | -78.30187 | 39328 ft | 430 kts | 0° |
| 2026-04-22 03:42 | 31.81325 | -78.29202 | 39340 ft | 430 kts | 0° |
| 2026-04-22 03:42 | 31.87251 | -78.28215 | 39328 ft | 430 kts | 0° |
| 2026-04-22 03:43 | 31.93170 | -78.27229 | 39328 ft | 430 kts | 0° |
| 2026-04-22 03:43 | 31.99085 | -78.26241 | 39330 ft | 430 kts | 0° |
| 2026-04-22 03:44 | 32.04963 | -78.25293 | 39331 ft | 429 kts | 360° |
| 2026-04-22 03:44 | 32.10883 | -78.24428 | 39332 ft | 428 kts | 359° |
| 2026-04-22 03:45 | 32.16796 | -78.23580 | 39331 ft | 428 kts | 359° |
| 2026-04-22 03:45 | 32.22673 | -78.22730 | 39333 ft | 428 kts | 359° |
| 2026-04-22 03:46 | 32.28589 | -78.21867 | 39332 ft | 428 kts | 359° |
| 2026-04-22 03:46 | 32.34508 | -78.21000 | 39348 ft | 428 kts | 359° |
| 2026-04-22 03:47 | 32.40423 | -78.20131 | 39333 ft | 428 kts | 359° |
| 2026-04-22 03:47 | 32.46338 | -78.19262 | 39332 ft | 428 kts | 359° |
| 2026-04-22 03:48 | 32.52213 | -78.18399 | 39332 ft | 428 kts | 359° |
| 2026-04-22 03:48 | 32.58132 | -78.17527 | 39337 ft | 428 kts | 359° |
| 2026-04-22 03:49 | 32.64047 | -78.16655 | 39334 ft | 429 kts | 359° |
| 2026-04-22 03:49 | 32.69966 | -78.15781 | 39333 ft | 429 kts | 359° |
| 2026-04-22 03:50 | 32.75851 | -78.14911 | 39333 ft | 429 kts | 359° |
| 2026-04-22 03:50 | 32.81768 | -78.14035 | 39335 ft | 429 kts | 359° |
| 2026-04-22 03:51 | 32.87688 | -78.13157 | 39336 ft | 429 kts | 359° |
| 2026-04-22 03:51 | 32.93609 | -78.12278 | 39338 ft | 429 kts | 359° |
| 2026-04-22 03:52 | 32.99531 | -78.11398 | 39338 ft | 429 kts | 359° |
| 2026-04-22 03:52 | 33.05415 | -78.10522 | 39338 ft | 429 kts | 359° |
| 2026-04-22 03:53 | 33.11338 | -78.09640 | 39357 ft | 429 kts | 360° |
| 2026-04-22 03:53 | 33.17260 | -78.08756 | 39341 ft | 429 kts | 360° |
| 2026-04-22 03:54 | 33.23182 | -78.07871 | 39341 ft | 429 kts | 360° |
| 2026-04-22 03:54 | 33.29061 | -78.06991 | 39341 ft | 429 kts | 360° |
| 2026-04-22 03:55 | 33.34987 | -78.06103 | 39341 ft | 429 kts | 360° |
| 2026-04-22 03:55 | 33.40906 | -78.05215 | 39343 ft | 429 kts | 360° |
| 2026-04-22 03:56 | 33.46833 | -78.04324 | 39341 ft | 429 kts | 360° |
| 2026-04-22 03:56 | 33.52764 | -78.03432 | 39341 ft | 429 kts | 360° |
| 2026-04-22 03:57 | 33.58650 | -78.02545 | 39341 ft | 429 kts | 360° |
| 2026-04-22 03:57 | 33.64578 | -78.01650 | 39356 ft | 430 kts | 360° |
| 2026-04-22 03:58 | 33.70526 | -78.00753 | 39341 ft | 431 kts | 360° |
| 2026-04-22 03:58 | 33.76488 | -77.99851 | 39340 ft | 432 kts | 360° |
| 2026-04-22 03:59 | 33.82449 | -77.98947 | 39340 ft | 432 kts | 360° |
| 2026-04-22 03:59 | 33.88367 | -77.98068 | 39339 ft | 431 kts | 359° |
| 2026-04-22 04:00 | 33.94329 | -77.97371 | 39342 ft | 430 kts | 358° |
| 2026-04-22 04:00 | 34.00291 | -77.96749 | 39338 ft | 430 kts | 358° |
| 2026-04-22 04:01 | 34.06252 | -77.96120 | 39335 ft | 430 kts | 358° |
| 2026-04-22 04:01 | 34.12176 | -77.95477 | 39340 ft | 431 kts | 358° |
| 2026-04-22 04:02 | 34.18148 | -77.94822 | 39340 ft | 430 kts | 358° |
| 2026-04-22 04:02 | 34.24104 | -77.94165 | 39339 ft | 430 kts | 358° |
| 2026-04-22 04:03 | 34.30054 | -77.93510 | 39340 ft | 430 kts | 358° |
| 2026-04-22 04:03 | 34.36011 | -77.92853 | 39340 ft | 430 kts | 358° |
| 2026-04-22 04:04 | 34.41920 | -77.92201 | 39346 ft | 429 kts | 358° |
| 2026-04-22 04:04 | 34.47853 | -77.91545 | 39339 ft | 428 kts | 358° |
| 2026-04-22 04:05 | 34.53781 | -77.90889 | 39341 ft | 428 kts | 358° |
| 2026-04-22 04:05 | 34.59711 | -77.90232 | 39340 ft | 428 kts | 358° |
| 2026-04-22 04:06 | 34.65597 | -77.89579 | 39354 ft | 428 kts | 358° |
| 2026-04-22 04:06 | 34.71523 | -77.88920 | 39343 ft | 427 kts | 358° |
| 2026-04-22 04:07 | 34.77442 | -77.88261 | 39336 ft | 427 kts | 358° |
| 2026-04-22 04:07 | 34.83365 | -77.87601 | 39335 ft | 427 kts | 358° |
| 2026-04-22 04:08 | 34.89246 | -77.86945 | 39363 ft | 427 kts | 358° |
| 2026-04-22 04:08 | 34.95161 | -77.86282 | 39340 ft | 426 kts | 358° |
| 2026-04-22 04:09 | 35.01056 | -77.85622 | 39339 ft | 425 kts | 358° |
| 2026-04-22 04:09 | 35.06953 | -77.84961 | 39339 ft | 425 kts | 358° |
| 2026-04-22 04:10 | 35.12848 | -77.84300 | 39339 ft | 426 kts | 358° |
| 2026-04-22 04:10 | 35.18697 | -77.83641 | 39332 ft | 424 kts | 358° |
| 2026-04-22 04:11 | 35.24571 | -77.82979 | 39329 ft | 423 kts | 358° |
| 2026-04-22 04:11 | 35.30431 | -77.82319 | 39330 ft | 423 kts | 358° |
| 2026-04-22 04:12 | 35.36302 | -77.81657 | 39332 ft | 423 kts | 358° |
| 2026-04-22 04:12 | 35.42128 | -77.80998 | 39346 ft | 423 kts | 358° |
| 2026-04-22 04:13 | 35.47997 | -77.80210 | 39340 ft | 425 kts | 0° |
| 2026-04-22 04:13 | 35.53867 | -77.79182 | 39337 ft | 426 kts | 1° |
| 2026-04-22 04:14 | 35.59735 | -77.78116 | 39335 ft | 426 kts | 1° |
| 2026-04-22 04:14 | 35.65611 | -77.77070 | 39327 ft | 427 kts | 0° |
| 2026-04-22 04:15 | 35.71460 | -77.76045 | 39323 ft | 428 kts | 0° |
| 2026-04-22 04:15 | 35.77365 | -77.75013 | 39323 ft | 428 kts | 0° |
| 2026-04-22 04:16 | 35.86213 | -77.73462 | 39325 ft | 428 kts | 0° |
| 2026-04-22 04:17 | 35.92128 | -77.72425 | 39327 ft | 431 kts | 0° |
| 2026-04-22 04:17 | 35.98037 | -77.71386 | 39327 ft | 432 kts | 0° |
| 2026-04-22 04:18 | 36.03984 | -77.70337 | 39325 ft | 432 kts | 0° |
| 2026-04-22 04:18 | 36.09931 | -77.69286 | 39322 ft | 432 kts | 0° |
| 2026-04-22 04:19 | 36.15891 | -77.68233 | 39312 ft | 433 kts | 1° |
| 2026-04-22 04:19 | 36.21827 | -77.67183 | 39310 ft | 434 kts | 1° |
| 2026-04-22 04:20 | 36.27808 | -77.66122 | 39311 ft | 434 kts | 1° |
| 2026-04-22 04:20 | 36.33789 | -77.65059 | 39320 ft | 434 kts | 1° |
| 2026-04-22 04:21 | 36.39769 | -77.63995 | 39326 ft | 433 kts | 1° |
| 2026-04-22 04:21 | 36.45690 | -77.62940 | 39317 ft | 433 kts | 1° |
| 2026-04-22 04:22 | 36.51655 | -77.61903 | 39309 ft | 432 kts | 0° |
| 2026-04-22 04:22 | 36.57603 | -77.60960 | 38902 ft | 429 kts | 0° |
| 2026-04-22 04:22 | 36.60554 | -77.60496 | 38402 ft | 427 kts | 0° |
| 2026-04-22 04:23 | 36.63488 | -77.60032 | 37846 ft | 425 kts | 0° |
| 2026-04-22 04:23 | 36.66417 | -77.59570 | 37263 ft | 424 kts | 0° |
| 2026-04-22 04:23 | 36.69350 | -77.59107 | 36748 ft | 426 kts | 0° |
| 2026-04-22 04:23 | 36.72256 | -77.58648 | 36218 ft | 428 kts | 0° |
| 2026-04-22 04:24 | 36.75222 | -77.58179 | 35697 ft | 430 kts | 0° |
| 2026-04-22 04:24 | 36.78188 | -77.57708 | 35177 ft | 430 kts | 0° |
| 2026-04-22 04:24 | 36.81151 | -77.57237 | 34680 ft | 429 kts | 0° |
| 2026-04-22 04:24 | 36.84116 | -77.56764 | 34187 ft | 429 kts | 0° |
| 2026-04-22 04:25 | 36.87076 | -77.56293 | 33613 ft | 428 kts | 0° |
| 2026-04-22 04:25 | 36.90033 | -77.55823 | 33053 ft | 429 kts | 0° |
| 2026-04-22 04:25 | 36.92998 | -77.55351 | 32497 ft | 430 kts | 1° |
| 2026-04-22 04:25 | 36.95969 | -77.54878 | 31957 ft | 431 kts | 1° |
| 2026-04-22 04:26 | 36.98955 | -77.54402 | 31435 ft | 433 kts | 1° |
| 2026-04-22 04:26 | 37.01907 | -77.53931 | 30925 ft | 435 kts | 1° |
| 2026-04-22 04:26 | 37.04909 | -77.53451 | 30424 ft | 436 kts | 1° |
| 2026-04-22 04:26 | 37.07925 | -77.52968 | 29859 ft | 437 kts | 1° |
| 2026-04-22 04:27 | 37.10950 | -77.52484 | 29284 ft | 439 kts | 2° |
| 2026-04-22 04:27 | 37.13977 | -77.51999 | 28718 ft | 440 kts | 2° |
| 2026-04-22 04:27 | 37.17025 | -77.51510 | 28156 ft | 442 kts | 2° |
| 2026-04-22 04:27 | 37.20081 | -77.51019 | 27600 ft | 444 kts | 2° |
| 2026-04-22 04:28 | 37.23155 | -77.50528 | 27068 ft | 446 kts | 2° |
| 2026-04-22 04:28 | 37.26198 | -77.50039 | 26549 ft | 448 kts | 2° |
| 2026-04-22 04:28 | 37.29288 | -77.49540 | 26030 ft | 448 kts | 3° |
| 2026-04-22 04:28 | 37.32354 | -77.49044 | 25167 ft | 441 kts | 3° |
| 2026-04-22 04:29 | 37.35384 | -77.48553 | 24161 ft | 437 kts | 3° |
| 2026-04-22 04:29 | 37.38393 | -77.48067 | 23351 ft | 435 kts | 3° |
| 2026-04-22 04:29 | 37.41382 | -77.47584 | 22601 ft | 431 kts | 4° |
| 2026-04-22 04:29 | 37.44337 | -77.47106 | 21875 ft | 426 kts | 4° |
| 2026-04-22 04:30 | 37.47254 | -77.46633 | 21404 ft | 417 kts | 4° |
| 2026-04-22 04:30 | 37.50035 | -77.46180 | 21268 ft | 399 kts | 3° |
| 2026-04-22 04:30 | 37.52759 | -77.45734 | 21257 ft | 380 kts | 3° |
| 2026-04-22 04:30 | 37.55299 | -77.45321 | 21259 ft | 369 kts | 3° |
| 2026-04-22 04:31 | 37.57842 | -77.44900 | 21198 ft | 367 kts | 5° |
| 2026-04-22 04:31 | 37.60347 | -77.44281 | 20683 ft | 368 kts | 8° |
| 2026-04-22 04:31 | 37.62834 | -77.43536 | 20106 ft | 367 kts | 9° |
| 2026-04-22 04:31 | 37.65315 | -77.42767 | 19566 ft | 366 kts | 9° |
| 2026-04-22 04:32 | 37.67784 | -77.42000 | 19054 ft | 364 kts | 9° |
| 2026-04-22 04:32 | 37.70237 | -77.41239 | 18546 ft | 362 kts | 9° |
| 2026-04-22 04:32 | 37.72676 | -77.40484 | 17986 ft | 360 kts | 10° |
| 2026-04-22 04:32 | 37.75065 | -77.39745 | 17479 ft | 356 kts | 10° |
| 2026-04-22 04:33 | 37.77462 | -77.39003 | 16991 ft | 353 kts | 10° |
| 2026-04-22 04:33 | 37.79843 | -77.38267 | 16530 ft | 351 kts | 10° |
| 2026-04-22 04:33 | 37.82205 | -77.37536 | 16050 ft | 348 kts | 10° |
| 2026-04-22 04:33 | 37.84547 | -77.36811 | 15585 ft | 344 kts | 10° |
| 2026-04-22 04:34 | 37.86857 | -77.36095 | 15108 ft | 341 kts | 10° |
| 2026-04-22 04:34 | 37.89151 | -77.35385 | 14633 ft | 338 kts | 10° |
| 2026-04-22 04:34 | 37.91422 | -77.34686 | 14156 ft | 335 kts | 10° |
| 2026-04-22 04:34 | 37.93646 | -77.34002 | 13649 ft | 332 kts | 10° |
| 2026-04-22 04:35 | 37.95873 | -77.33316 | 13188 ft | 328 kts | 10° |
| 2026-04-22 04:35 | 37.98087 | -77.32634 | 13021 ft | 328 kts | 9° |
| 2026-04-22 04:35 | 38.00312 | -77.31950 | 13006 ft | 330 kts | 9° |
| 2026-04-22 04:35 | 38.02543 | -77.31263 | 13006 ft | 331 kts | 9° |
| 2026-04-22 04:36 | 38.04783 | -77.30573 | 12999 ft | 331 kts | 9° |
| 2026-04-22 04:36 | 38.07013 | -77.29883 | 12831 ft | 329 kts | 9° |
| 2026-04-22 04:36 | 38.09228 | -77.29190 | 12311 ft | 327 kts | 9° |
| 2026-04-22 04:36 | 38.11426 | -77.28499 | 11825 ft | 323 kts | 9° |
| 2026-04-22 04:37 | 38.13572 | -77.27824 | 11347 ft | 320 kts | 9° |
| 2026-04-22 04:37 | 38.15724 | -77.27148 | 11049 ft | 318 kts | 9° |
| 2026-04-22 04:37 | 38.17875 | -77.26472 | 10990 ft | 318 kts | 9° |
| 2026-04-22 04:37 | 38.20020 | -77.25777 | 10997 ft | 319 kts | 11° |
| 2026-04-22 04:38 | 38.22157 | -77.24999 | 10988 ft | 319 kts | 12° |
| 2026-04-22 04:38 | 38.24284 | -77.24198 | 10988 ft | 319 kts | 12° |
| 2026-04-22 04:38 | 38.26413 | -77.23392 | 10988 ft | 319 kts | 12° |
| 2026-04-22 04:38 | 38.28538 | -77.22586 | 10991 ft | 319 kts | 12° |
| 2026-04-22 04:39 | 38.30625 | -77.21794 | 10992 ft | 317 kts | 12° |
| 2026-04-22 04:39 | 38.32735 | -77.20995 | 11016 ft | 316 kts | 12° |
| 2026-04-22 04:39 | 38.34839 | -77.20197 | 11004 ft | 316 kts | 12° |
| 2026-04-22 04:39 | 38.36942 | -77.19398 | 11014 ft | 316 kts | 12° |
| 2026-04-22 04:40 | 38.39046 | -77.18590 | 10973 ft | 315 kts | 12° |
| 2026-04-22 04:40 | 38.41140 | -77.17783 | 10814 ft | 315 kts | 12° |
| 2026-04-22 04:40 | 38.43238 | -77.16973 | 10685 ft | 315 kts | 12° |
| 2026-04-22 04:40 | 38.45333 | -77.16164 | 10539 ft | 315 kts | 12° |
| 2026-04-22 04:41 | 38.47399 | -77.15366 | 10396 ft | 314 kts | 12° |
| 2026-04-22 04:41 | 38.49487 | -77.14559 | 10257 ft | 313 kts | 12° |
| 2026-04-22 04:41 | 38.51572 | -77.13752 | 10141 ft | 313 kts | 12° |
| 2026-04-22 04:41 | 38.53655 | -77.12946 | 10030 ft | 310 kts | 12° |
| 2026-04-22 04:42 | 38.55659 | -77.12165 | 10007 ft | 292 kts | 11° |
| 2026-04-22 04:42 | 38.57553 | -77.11425 | 10010 ft | 279 kts | 11° |
| 2026-04-22 04:42 | 38.59401 | -77.10714 | 10009 ft | 277 kts | 11° |
| 2026-04-22 04:42 | 38.61253 | -77.10005 | 10009 ft | 278 kts | 11° |
| 2026-04-22 04:43 | 38.63073 | -77.09307 | 9786 ft | 277 kts | 11° |
| 2026-04-22 04:43 | 38.64922 | -77.08596 | 9317 ft | 278 kts | 10° |
| 2026-04-22 04:43 | 38.66781 | -77.07882 | 8841 ft | 279 kts | 10° |
| 2026-04-22 04:43 | 38.68647 | -77.07239 | 8331 ft | 276 kts | 4° |
| 2026-04-22 04:44 | 38.70539 | -77.06925 | 7879 ft | 273 kts | 359° |
| 2026-04-22 04:44 | 38.72427 | -77.06723 | 7446 ft | 272 kts | 358° |
| 2026-04-22 04:44 | 38.74315 | -77.06540 | 7087 ft | 271 kts | 357° |
| 2026-04-22 04:44 | 38.76166 | -77.06597 | 6976 ft | 263 kts | 344° |
| 2026-04-22 04:45 | 38.77833 | -77.07352 | 6557 ft | 255 kts | 327° |
| 2026-04-22 04:45 | 38.79351 | -77.08514 | 6148 ft | 253 kts | 322° |
| 2026-04-22 04:45 | 38.80822 | -77.09740 | 6004 ft | 252 kts | 322° |
| 2026-04-22 04:45 | 38.82292 | -77.10974 | 5653 ft | 253 kts | 321° |
| 2026-04-22 04:46 | 38.83670 | -77.12350 | 5197 ft | 250 kts | 313° |
| 2026-04-22 04:46 | 38.84939 | -77.13877 | 4750 ft | 249 kts | 311° |
| 2026-04-22 04:46 | 38.86185 | -77.15432 | 4249 ft | 252 kts | 309° |
| 2026-04-22 04:46 | 38.87443 | -77.17010 | 3749 ft | 255 kts | 309° |
| 2026-04-22 04:47 | 38.88703 | -77.18588 | 3247 ft | 258 kts | 308° |
| 2026-04-22 04:47 | 38.89992 | -77.20199 | 2829 ft | 257 kts | 308° |
| 2026-04-22 04:47 | 38.91252 | -77.21763 | 2693 ft | 245 kts | 308° |
| 2026-04-22 04:47 | 38.92441 | -77.23225 | 2685 ft | 229 kts | 310° |
| 2026-04-22 04:48 | 38.93733 | -77.24331 | 2691 ft | 218 kts | 327° |
| 2026-04-22 04:48 | 38.95174 | -77.24768 | 2666 ft | 212 kts | 353° |
| 2026-04-22 04:48 | 38.96612 | -77.24351 | 2677 ft | 216 kts | 27° |
| 2026-04-22 04:48 | 38.97650 | -77.23051 | 2671 ft | 210 kts | 71° |
| 2026-04-22 04:49 | 38.97795 | -77.21269 | 2713 ft | 200 kts | 108° |
| 2026-04-22 04:49 | 38.97477 | -77.19536 | 2703 ft | 199 kts | 115° |
| 2026-04-22 04:49 | 38.97089 | -77.17821 | 2701 ft | 200 kts | 116° |
| 2026-04-22 04:49 | 38.96673 | -77.16121 | 2688 ft | 197 kts | 122° |
| 2026-04-22 04:50 | 38.95944 | -77.14718 | 2664 ft | 184 kts | 143° |
| 2026-04-22 04:50 | 38.95028 | -77.13600 | 2304 ft | 179 kts | 149° |
| 2026-04-22 04:50 | 38.94414 | -77.12916 | 2086 ft | 174 kts | 149° |
| 2026-04-22 04:50 | 38.93149 | -77.11705 | 1987 ft | 166 kts | 159° |
| 2026-04-22 04:51 | 38.92170 | -77.11006 | 1793 ft | 156 kts | 159° |
| 2026-04-22 04:51 | 38.91287 | -77.10196 | 1665 ft | 158 kts | 144° |
| 2026-04-22 04:51 | 38.90663 | -77.09034 | 1442 ft | 160 kts | 123° |
| 2026-04-22 04:51 | 38.90251 | -77.07782 | 1259 ft | 143 kts | 124° |
| 2026-04-22 04:52 | 38.89723 | -77.06819 | 1049 ft | 125 kts | 138° |
| 2026-04-22 04:52 | 38.89327 | -77.06293 | 859 ft | 121 kts | 138° |
| 2026-04-22 04:52 | 38.88743 | -77.05523 | 605 ft | 119 kts | 136° |
| 2026-04-22 04:52 | 38.87965 | -77.04533 | 427 ft | 119 kts | 145° |
| 2026-04-22 04:53 | 38.87235 | -77.04081 | 291 ft | 116 kts | 164° |
| 2026-04-22 04:53 | 38.86426 | -77.03911 | 133 ft | 118 kts | 169° |
| 2026-04-22 04:53 | 38.85663 | -77.03822 | 30 ft | 101 kts | 175° |
| 2026-04-22 04:53 | 38.85069 | -77.03766 | 27 ft | 61 kts | 175° |
| 2026-04-22 04:54 | 38.84882 | -77.03833 | 26 ft | 21 kts | 258° |
| 2026-04-22 04:54 | 38.84880 | -77.03922 | 26 ft | 9 kts | 294° |
| 2026-04-22 04:54 | 38.84920 | -77.03950 | 28 ft | 13 kts | 346° |